Time,TemperatureF,DewpointF,PressureIn,WindDirection,WindDirectionDegrees,WindSpeedMPH,WindSpeedGustMPH,Humidity,HourlyPrecipIn,Conditions,Clouds,dailyrainin,SoftwareType,DateUTC
2013-09-25 00:11:00,32.0,30.0,-100.00,NW,315,4.0,10.0,90,-99.99,,,-99.99,,2013-09-25 07:11:00,
2013-09-25 00:42:00,32.0,29.0,-100.00,NW,315,6.0,15.0,91,-99.99,,,-99.99,,2013-09-25 07:42:00,
2013-09-25 00:53:00,32.0,29.0,-100.00,NW,315,6.0,10.0,87,-99.99,,,-99.99,,2013-09-25 07:53:00,
2013-09-25 01:11:00,32.0,29.0,-100.00,NW,315,6.0,9.0,87,-99.99,,,-99.99,,2013-09-25 08:11:00,
2013-09-25 01:21:00,32.0,29.0,-100.00,NW,315,3.0,6.0,91,-99.99,,,-99.99,,2013-09-25 08:21:00,
2013-09-25 01:42:00,32.0,28.0,-100.00,NW,315,4.0,10.0,86,-99.99,,,-99.99,,2013-09-25 08:42:00,
2013-09-25 01:52:00,32.0,29.0,-100.00,NW,315,8.0,12.0,88,-99.99,,,-99.99,,2013-09-25 08:52:00,
2013-09-25 02:11:00,32.0,29.0,-100.00,NW,315,9.0,16.0,87,-99.99,,,-99.99,,2013-09-25 09:11:00,
2013-09-25 02:21:00,32.0,28.0,-100.00,West,270,8.0,12.0,85,-99.99,,,-99.99,,2013-09-25 09:21:00,
2013-09-25 02:43:00,32.0,28.0,-100.00,West,270,7.0,15.0,83,-99.99,,,-99.99,,2013-09-25 09:43:00,
2013-09-25 02:53:00,32.0,28.0,-100.00,West,270,9.0,17.0,84,-99.99,,,-99.99,,2013-09-25 09:53:00,
2013-09-25 03:12:00,32.0,28.0,-100.00,NW,315,9.0,15.0,85,-99.99,,,-99.99,,2013-09-25 10:12:00,
2013-09-25 03:23:00,31.0,29.0,-100.00,NW,315,8.0,11.0,90,-99.99,,,-99.99,,2013-09-25 10:23:00,
2013-09-25 03:42:00,31.0,28.0,-100.00,West,270,7.0,12.0,87,-99.99,,,-99.99,,2013-09-25 10:42:00,
2013-09-25 03:53:00,32.0,28.0,-100.00,West,270,9.0,12.0,87,-99.99,,,-99.99,,2013-09-25 10:53:00,
2013-09-25 04:12:00,31.0,29.0,-100.00,West,270,7.0,12.0,90,-99.99,,,-99.99,,2013-09-25 11:12:00,
2013-09-25 04:22:00,31.0,28.0,-100.00,West,270,4.0,12.0,90,-99.99,,,-99.99,,2013-09-25 11:22:00,
2013-09-25 04:42:00,31.0,28.0,-100.00,West,270,4.0,9.0,91,-99.99,,,-99.99,,2013-09-25 11:42:00,
2013-09-25 04:52:00,30.0,28.0,-100.00,West,270,4.0,11.0,91,-99.99,,,-99.99,,2013-09-25 11:52:00,
2013-09-25 05:12:00,30.0,28.0,-100.00,West,270,4.0,9.0,91,-99.99,,,-99.99,,2013-09-25 12:12:00,
2013-09-25 05:21:00,30.0,27.0,-100.00,South,180,4.0,6.0,87,-99.99,,,-99.99,,2013-09-25 12:21:00,
2013-09-25 05:42:00,31.0,27.0,-100.00,SE,135,4.0,6.0,85,-99.99,,,-99.99,,2013-09-25 12:42:00,
2013-09-25 05:52:00,30.0,27.0,-100.00,West,270,4.0,9.0,89,-99.99,,,-99.99,,2013-09-25 12:52:00,
2013-09-25 06:11:00,31.0,27.0,-100.00,West,270,2.0,8.0,85,-99.99,,,-99.99,,2013-09-25 13:11:00,
2013-09-25 06:21:00,31.0,26.0,-100.00,West,270,4.0,14.0,82,-99.99,,,-99.99,,2013-09-25 13:21:00,
2013-09-25 06:42:00,30.0,27.0,-100.00,East,90,6.0,9.0,86,-99.99,,,-99.99,,2013-09-25 13:42:00,
2013-09-25 06:52:00,31.0,27.0,-100.00,SW,225,4.0,9.0,86,-99.99,,,-99.99,,2013-09-25 13:52:00,
2013-09-25 07:11:00,31.0,26.0,-100.00,East,90,4.0,11.0,81,-99.99,,,-99.99,,2013-09-25 14:11:00,
2013-09-25 07:22:00,31.0,26.0,-100.00,NW,315,8.0,17.0,83,-99.99,,,-99.99,,2013-09-25 14:22:00,
2013-09-25 07:42:00,31.0,26.0,-100.00,NW,315,9.0,16.0,82,-99.99,,,-99.99,,2013-09-25 14:42:00,
2013-09-25 07:52:00,32.0,25.0,-100.00,NW,315,11.0,17.0,77,-99.99,,,-99.99,,2013-09-25 14:52:00,
2013-09-25 08:11:00,32.0,26.0,-100.00,NW,315,14.0,24.0,78,-99.99,,,-99.99,,2013-09-25 15:11:00,
2013-09-25 08:22:00,32.0,25.0,-100.00,West,270,6.0,21.0,75,-99.99,,,-99.99,,2013-09-25 15:22:00,
2013-09-25 08:43:00,32.0,26.0,-100.00,East,90,7.0,22.0,80,-99.99,,,-99.99,,2013-09-25 15:43:00,
2013-09-25 08:53:00,31.0,27.0,-100.00,East,90,8.0,12.0,85,-99.99,,,-99.99,,2013-09-25 15:53:00,
2013-09-25 09:13:00,32.0,27.0,-100.00,NE,45,4.0,11.0,84,-99.99,,,-99.99,,2013-09-25 16:13:00,
2013-09-25 09:23:00,32.0,27.0,-100.00,NE,45,6.0,8.0,81,-99.99,,,-99.99,,2013-09-25 16:23:00,
2013-09-25 09:43:00,33.0,28.0,-100.00,NE,45,2.0,6.0,80,-99.99,,,-99.99,,2013-09-25 16:43:00,
2013-09-25 09:53:00,33.0,27.0,-100.00,West,270,3.0,6.0,78,-99.99,,,-99.99,,2013-09-25 16:53:00,
2013-09-25 10:12:00,34.0,27.0,-100.00,North,0,3.0,9.0,78,-99.99,,,-99.99,,2013-09-25 17:12:00,
2013-09-25 10:23:00,34.0,28.0,-100.00,West,270,6.0,10.0,78,-99.99,,,-99.99,,2013-09-25 17:23:00,
2013-09-25 10:42:00,34.0,29.0,-100.00,West,270,6.0,11.0,79,-99.99,,,-99.99,,2013-09-25 17:42:00,
2013-09-25 10:52:00,35.0,28.0,-100.00,NW,315,4.0,12.0,75,-99.99,,,-99.99,,2013-09-25 17:52:00,
2013-09-25 11:13:00,37.0,29.0,-100.00,NW,315,4.0,9.0,72,-99.99,,,-99.99,,2013-09-25 18:13:00,
2013-09-25 11:21:00,35.0,27.0,-100.00,North,0,6.0,9.0,72,-99.99,,,-99.99,,2013-09-25 18:21:00,
2013-09-25 11:42:00,35.0,27.0,-100.00,NW,315,6.0,11.0,74,-99.99,,,-99.99,,2013-09-25 18:42:00,
2013-09-25 11:52:00,39.0,29.0,-100.00,NW,315,6.0,12.0,65,-99.99,,,-99.99,,2013-09-25 18:52:00,
2013-09-25 12:11:00,38.0,29.0,-100.00,North,0,4.0,12.0,68,-99.99,,,-99.99,,2013-09-25 19:11:00,
2013-09-25 12:22:00,37.0,29.0,-100.00,NW,315,6.0,12.0,72,-99.99,,,-99.99,,2013-09-25 19:22:00,
2013-09-25 12:42:00,37.0,27.0,-100.00,NW,315,6.0,10.0,66,-99.99,,,-99.99,,2013-09-25 19:42:00,
2013-09-25 12:52:00,37.0,27.0,-100.00,NW,315,6.0,13.0,66,-99.99,,,-99.99,,2013-09-25 19:52:00,
2013-09-25 13:12:00,37.0,28.0,-100.00,NW,315,4.0,12.0,71,-99.99,,,-99.99,,2013-09-25 20:12:00,
2013-09-25 13:22:00,37.0,27.0,-100.00,North,0,3.0,9.0,67,-99.99,,,-99.99,,2013-09-25 20:22:00,
2013-09-25 13:42:00,37.0,28.0,-100.00,North,0,2.0,6.0,68,-99.99,,,-99.99,,2013-09-25 20:42:00,
2013-09-25 13:52:00,36.0,28.0,-100.00,NW,315,6.0,9.0,73,-99.99,,,-99.99,,2013-09-25 20:52:00,
2013-09-25 14:12:00,37.0,29.0,-100.00,NW,315,3.0,9.0,70,-99.99,,,-99.99,,2013-09-25 21:12:00,
2013-09-25 14:22:00,37.0,28.0,-100.00,NW,315,6.0,9.0,69,-99.99,,,-99.99,,2013-09-25 21:22:00,
2013-09-25 14:44:00,38.0,28.0,-100.00,North,0,4.0,8.0,68,-99.99,,,-99.99,,2013-09-25 21:44:00,
2013-09-25 14:54:00,41.0,28.0,-100.00,North,0,6.0,12.0,58,-99.99,,,-99.99,,2013-09-25 21:54:00,
2013-09-25 15:14:00,41.0,28.0,-100.00,North,0,2.0,9.0,61,-99.99,,,-99.99,,2013-09-25 22:14:00,
2013-09-25 15:42:00,38.0,28.0,-100.00,North,0,5.0,8.0,68,-99.99,,,-99.99,,2013-09-25 22:42:00,
2013-09-25 15:53:00,39.0,27.0,-100.00,NW,315,7.0,11.0,62,-99.99,,,-99.99,,2013-09-25 22:53:00,
2013-09-25 16:12:00,39.0,26.0,-100.00,North,0,6.0,10.0,60,-99.99,,,-99.99,,2013-09-25 23:12:00,
2013-09-25 16:22:00,41.0,28.0,-100.00,NW,315,4.0,9.0,58,-99.99,,,-99.99,,2013-09-25 23:22:00,
2013-09-25 16:42:00,43.0,26.0,-100.00,West,270,2.0,11.0,51,-99.99,,,-99.99,,2013-09-25 23:42:00,
2013-09-25 16:53:00,43.0,25.0,-100.00,North,0,6.0,10.0,47,-99.99,,,-99.99,,2013-09-25 23:53:00,
2013-09-25 17:11:00,40.0,28.0,-100.00,North,0,4.0,12.0,60,-99.99,,,-99.99,,2013-09-26 00:11:00,
2013-09-25 17:22:00,43.0,27.0,-100.00,North,0,2.0,9.0,54,-99.99,,,-99.99,,2013-09-26 00:22:00,
2013-09-25 17:42:00,41.0,28.0,-100.00,North,0,4.0,7.0,60,-99.99,,,-99.99,,2013-09-26 00:42:00,
2013-09-25 17:52:00,40.0,25.0,-100.00,North,0,3.0,9.0,56,-99.99,,,-99.99,,2013-09-26 00:52:00,
2013-09-25 18:12:00,39.0,27.0,-100.00,NE,45,3.0,6.0,63,-99.99,,,-99.99,,2013-09-26 01:12:00,
2013-09-25 18:22:00,38.0,31.0,-100.00,NE,45,1.0,6.0,75,-99.99,,,-99.99,,2013-09-26 01:22:00,
2013-09-25 18:42:00,38.0,31.0,-100.00,East,90,1.0,4.0,75,-99.99,,,-99.99,,2013-09-26 01:42:00,
2013-09-25 18:52:00,38.0,29.0,-100.00,NE,45,3.0,4.0,70,-99.99,,,-99.99,,2013-09-26 01:52:00,
2013-09-25 19:12:00,36.0,32.0,-100.00,East,90,2.0,4.0,83,-99.99,,,-99.99,,2013-09-26 02:12:00,
2013-09-25 19:21:00,36.0,32.0,-100.00,SE,135,1.0,3.0,87,-99.99,,,-99.99,,2013-09-26 02:21:00,
2013-09-25 20:12:00,34.0,32.0,-100.00,West,270,1.0,2.0,89,-99.99,,,-99.99,,2013-09-26 03:12:00,
2013-09-25 20:22:00,34.0,29.0,-100.00,South,180,0.0,3.0,82,-99.99,,,-99.99,,2013-09-26 03:22:00,
2013-09-25 20:44:00,33.0,28.0,-100.00,SE,135,0.0,3.0,80,-99.99,,,-99.99,,2013-09-26 03:44:00,
2013-09-25 20:54:00,32.0,28.0,-100.00,NW,315,3.0,4.0,83,-99.99,,,-99.99,,2013-09-26 03:54:00,
2013-09-25 21:13:00,33.0,28.0,-100.00,West,270,1.0,3.0,81,-99.99,,,-99.99,,2013-09-26 04:13:00,
2013-09-25 21:24:00,33.0,27.0,-100.00,NE,45,1.0,3.0,79,-99.99,,,-99.99,,2013-09-26 04:24:00,
2013-09-25 21:44:00,33.0,27.0,-100.00,North,0,1.0,2.0,80,-99.99,,,-99.99,,2013-09-26 04:44:00,
2013-09-25 21:54:00,32.0,27.0,-100.00,East,90,0.0,2.0,80,-99.99,,,-99.99,,2013-09-26 04:54:00,
2013-09-25 22:12:00,32.0,27.0,-100.00,SW,225,1.0,1.0,82,-99.99,,,-99.99,,2013-09-26 05:12:00,
2013-09-25 22:23:00,32.0,27.0,-100.00,North,0,0.0,3.0,82,-99.99,,,-99.99,,2013-09-26 05:23:00,
2013-09-25 22:43:00,32.0,27.0,-100.00,North,0,1.0,3.0,80,-99.99,,,-99.99,,2013-09-26 05:43:00,
2013-09-25 22:52:00,32.0,27.0,-100.00,NE,45,0.0,3.0,81,-99.99,,,-99.99,,2013-09-26 05:52:00,
2013-09-25 23:12:00,32.0,27.0,-100.00,East,90,0.0,2.0,82,-99.99,,,-99.99,,2013-09-26 06:12:00,
2013-09-25 23:22:00,32.0,27.0,-100.00,NW,315,1.0,6.0,83,-99.99,,,-99.99,,2013-09-26 06:22:00,
2013-09-25 23:42:00,32.0,27.0,-100.00,NW,315,1.0,4.0,81,-99.99,,,-99.99,,2013-09-26 06:42:00,
2013-09-25 23:53:00,32.0,27.0,-100.00,SE,135,0.0,4.0,81,-99.99,,,-99.99,,2013-09-26 06:53:00,